createdAt,value
2023-03-06T00:00:39.102Z,3.00
2023-03-06T00:03:08.571Z,3.00
2023-03-06T00:05:37.110Z,3.00
2023-03-06T00:08:05.930Z,3.00
2023-03-06T00:10:35.185Z,2.90
2023-03-06T00:13:06.530Z,2.90
2023-03-06T00:15:35.289Z,2.90
2023-03-06T00:18:07.952Z,2.90
2023-03-06T00:20:37.803Z,2.90
2023-03-06T00:23:06.223Z,2.90
2023-03-06T00:25:36.400Z,2.90
2023-03-06T00:28:06.438Z,2.80
2023-03-06T00:30:35.138Z,2.80
2023-03-06T00:33:03.644Z,2.80
2023-03-06T00:35:32.180Z,2.70
2023-03-06T00:38:01.154Z,2.70
2023-03-06T00:40:29.644Z,2.70
2023-03-06T00:42:58.171Z,2.70
2023-03-06T00:45:26.700Z,2.70
2023-03-06T00:47:55.173Z,2.70
2023-03-06T00:50:23.603Z,2.70
2023-03-06T00:52:52.098Z,2.70
2023-03-06T00:55:20.614Z,2.60
2023-03-06T00:57:49.545Z,2.60
2023-03-06T01:00:18.392Z,2.60
2023-03-06T01:02:46.903Z,2.60
2023-03-06T01:05:15.885Z,2.70
2023-03-06T01:07:44.762Z,2.70
2023-03-06T01:10:13.575Z,2.70
2023-03-06T01:12:42.094Z,2.70
2023-03-06T01:15:13.326Z,2.70
2023-03-06T01:17:41.768Z,2.70
2023-03-06T01:20:13.766Z,2.70
2023-03-06T01:22:42.197Z,2.70
2023-03-06T01:25:11.394Z,2.70
2023-03-06T01:27:42.559Z,2.70
2023-03-06T01:30:11.616Z,2.70
2023-03-06T01:32:40.324Z,2.70
2023-03-06T01:35:09.437Z,2.70
2023-03-06T01:37:39.136Z,2.80
2023-03-06T01:40:09.449Z,2.80
2023-03-06T01:42:37.866Z,2.80
2023-03-06T01:45:18.403Z,2.80
2023-03-06T01:47:46.851Z,2.80
2023-03-06T01:50:15.509Z,2.80
2023-03-06T01:52:47.025Z,2.80
2023-03-06T01:55:18.840Z,2.80
2023-03-06T01:57:52.356Z,2.90
2023-03-06T02:00:24.023Z,2.80
2023-03-06T02:02:56.491Z,2.90
2023-03-06T02:05:27.770Z,2.90
2023-03-06T02:07:58.067Z,2.90
2023-03-06T02:10:27.316Z,2.90
2023-03-06T02:12:56.096Z,2.90
2023-03-06T02:15:27.342Z,2.90
2023-03-06T02:17:56.875Z,2.90
2023-03-06T02:20:31.371Z,2.90
2023-03-06T02:23:06.033Z,2.90
2023-03-06T02:25:37.923Z,2.90
2023-03-06T02:28:09.429Z,2.90
2023-03-06T02:30:38.886Z,2.90
2023-03-06T02:33:07.612Z,2.90
2023-03-06T02:35:38.913Z,2.90
2023-03-06T02:38:10.531Z,3.00
2023-03-06T02:40:39.484Z,2.90
2023-03-06T02:43:08.253Z,2.90
2023-03-06T02:45:39.457Z,2.90
2023-03-06T02:48:08.179Z,2.90
2023-03-06T02:50:37.221Z,3.00
2023-03-06T02:53:06.788Z,2.90
2023-03-06T02:55:35.815Z,2.90
2023-03-06T02:58:04.848Z,2.90
2023-03-06T03:00:34.338Z,2.90
2023-03-06T03:03:02.965Z,2.90
2023-03-06T03:05:31.394Z,2.90
2023-03-06T03:08:00.317Z,2.90
2023-03-06T03:10:28.880Z,2.90
2023-03-06T03:12:58.162Z,2.90
2023-03-06T03:15:27.123Z,2.90
2023-03-06T03:17:55.692Z,2.90
2023-03-06T03:20:24.898Z,2.90
2023-03-06T03:22:57.053Z,2.80
2023-03-06T03:25:26.798Z,2.90
2023-03-06T03:27:55.639Z,2.80
2023-03-06T03:30:26.512Z,2.90
2023-03-06T03:32:55.028Z,2.80
2023-03-06T03:35:23.499Z,2.80
2023-03-06T03:37:52.534Z,2.80
2023-03-06T03:40:21.148Z,2.70
2023-03-06T03:42:50.030Z,2.70
2023-03-06T03:45:18.964Z,2.70
2023-03-06T03:47:47.390Z,2.60
2023-03-06T03:50:15.826Z,2.60
2023-03-06T03:52:44.264Z,2.40
2023-03-06T03:55:12.828Z,2.30
2023-03-06T03:57:43.270Z,2.30
2023-03-06T04:00:14.166Z,2.20
2023-03-06T04:02:44.144Z,2.30
2023-03-06T04:05:15.107Z,2.20
2023-03-06T04:07:45.076Z,2.20
2023-03-06T04:10:14.589Z,2.20
2023-03-06T04:12:43.179Z,2.20
2023-03-06T04:15:11.827Z,2.10
2023-03-06T04:17:40.260Z,2.00
2023-03-06T04:20:09.874Z,2.00
2023-03-06T04:22:38.652Z,2.00
2023-03-06T04:25:07.391Z,2.00
2023-03-06T04:27:35.862Z,2.00
2023-03-06T04:30:05.198Z,2.00
2023-03-06T04:32:33.889Z,2.00
2023-03-06T04:35:02.647Z,2.10
2023-03-06T04:37:31.570Z,2.10
2023-03-06T04:40:00.402Z,2.20
2023-03-06T04:42:29.018Z,2.20
2023-03-06T04:44:57.593Z,2.20
2023-03-06T04:47:26.113Z,2.20
2023-03-06T04:49:54.698Z,2.20
2023-03-06T04:52:23.226Z,2.20
2023-03-06T04:54:51.708Z,2.20
2023-03-06T04:57:20.299Z,2.20
2023-03-06T04:59:49.986Z,2.20
2023-03-06T05:02:19.015Z,2.30
2023-03-06T05:04:47.468Z,2.30
2023-03-06T05:07:16.280Z,2.30
2023-03-06T05:09:44.872Z,2.30
2023-03-06T05:12:13.339Z,2.30
2023-03-06T05:14:41.851Z,2.30
2023-03-06T05:17:10.611Z,2.30
2023-03-06T05:19:39.063Z,2.30
2023-03-06T05:22:07.957Z,2.40
2023-03-06T05:24:37.752Z,2.40
2023-03-06T05:27:06.270Z,2.40
2023-03-06T05:29:34.849Z,2.40
2023-03-06T05:32:03.541Z,2.40
2023-03-06T05:34:32.082Z,2.40
2023-03-06T05:37:01.715Z,2.40
2023-03-06T05:39:30.392Z,2.40
2023-03-06T05:41:58.931Z,2.40
2023-03-06T05:44:32.971Z,2.40
2023-03-06T05:47:01.870Z,2.40
2023-03-06T05:49:35.396Z,2.30
2023-03-06T05:52:04.994Z,2.30
2023-03-06T05:54:34.946Z,2.30
2023-03-06T05:57:05.157Z,2.30
2023-03-06T05:59:34.651Z,2.20
2023-03-06T06:02:05.238Z,2.20
2023-03-06T06:04:33.863Z,2.10
2023-03-06T06:07:03.132Z,2.00
2023-03-06T06:09:31.671Z,2.00
2023-03-06T06:12:03.524Z,2.00
2023-03-06T06:14:34.445Z,1.90
2023-03-06T06:17:03.374Z,2.00
2023-03-06T06:19:32.546Z,1.90
2023-03-06T06:22:02.590Z,1.90
2023-03-06T06:24:32.050Z,2.00
2023-03-06T06:27:03.398Z,2.00
2023-03-06T06:29:33.299Z,1.90
2023-03-06T06:32:02.095Z,1.90
2023-03-06T06:34:31.899Z,1.90
2023-03-06T06:37:00.742Z,2.00
2023-03-06T06:39:29.971Z,2.00
2023-03-06T06:42:20.054Z,2.00
2023-03-06T06:44:28.962Z,2.10
2023-03-06T06:47:21.904Z,2.20
2023-03-06T06:49:29.865Z,2.20
2023-03-06T06:51:58.763Z,2.20
2023-03-06T06:54:27.574Z,2.30
2023-03-06T06:56:56.225Z,2.30
2023-03-06T06:59:24.736Z,2.40
2023-03-06T07:01:53.967Z,2.30
2023-03-06T07:04:22.492Z,2.40
2023-03-06T07:06:51.383Z,2.40
2023-03-06T07:09:20.100Z,2.40
2023-03-06T07:11:48.877Z,2.40
2023-03-06T07:14:17.326Z,2.50
2023-03-06T07:16:45.848Z,2.50
2023-03-06T07:19:15.007Z,2.60
2023-03-06T07:21:43.507Z,2.50
2023-03-06T07:24:12.080Z,2.50
2023-03-06T07:26:40.600Z,2.60
2023-03-06T07:29:10.482Z,2.60
2023-03-06T07:31:40.602Z,2.60
2023-03-06T07:34:10.632Z,2.60
2023-03-06T07:36:42.585Z,2.60
2023-03-06T07:39:11.285Z,2.70
2023-03-06T07:41:39.736Z,2.70
2023-03-06T07:44:08.293Z,2.70
2023-03-06T07:46:36.954Z,2.80
2023-03-06T07:49:05.513Z,2.70
2023-03-06T07:51:33.986Z,2.80
2023-03-06T07:54:02.428Z,2.90
2023-03-06T07:56:30.934Z,3.00
2023-03-06T07:58:59.417Z,3.10
2023-03-06T08:01:28.565Z,3.00
2023-03-06T08:03:57.624Z,3.10
2023-03-06T08:06:28.219Z,3.00
2023-03-06T08:08:58.562Z,3.00
2023-03-06T08:11:30.229Z,3.10
2023-03-06T08:13:59.598Z,3.20
2023-03-06T08:16:30.599Z,3.30
2023-03-06T08:18:59.600Z,3.20
2023-03-06T08:21:29.137Z,3.10
2023-03-06T08:23:57.990Z,3.00
2023-03-06T08:26:31.946Z,3.00
2023-03-06T08:29:02.056Z,3.10
2023-03-06T08:31:36.488Z,3.10
2023-03-06T08:34:08.178Z,3.30
2023-03-06T08:36:36.846Z,3.10
2023-03-06T08:39:06.525Z,3.20
2023-03-06T08:41:36.552Z,3.20
2023-03-06T08:44:05.998Z,3.20
2023-03-06T08:46:35.519Z,3.20
2023-03-06T08:49:04.657Z,3.00
2023-03-06T08:51:34.609Z,3.00
2023-03-06T08:54:03.072Z,2.90
2023-03-06T08:56:34.592Z,3.00
2023-03-06T08:59:04.988Z,3.00
2023-03-06T09:01:36.551Z,3.00
2023-03-06T09:04:08.309Z,3.20
2023-03-06T09:06:40.113Z,3.00
2023-03-06T09:09:08.785Z,2.90
2023-03-06T09:11:37.417Z,2.60
2023-03-06T09:14:06.823Z,2.60
2023-03-06T09:16:35.439Z,2.80
2023-03-06T09:19:04.115Z,3.30
2023-03-06T09:21:32.675Z,3.40
2023-03-06T09:24:01.229Z,3.40
2023-03-06T09:26:43.424Z,3.10
2023-03-06T09:28:59.951Z,3.30
2023-03-06T09:31:28.462Z,3.10
2023-03-06T09:33:57.663Z,3.10
2023-03-06T09:36:26.160Z,3.10
2023-03-06T09:38:54.679Z,3.10
2023-03-06T09:41:28.976Z,3.10
2023-03-06T09:44:08.367Z,3.20
2023-03-06T09:46:49.099Z,3.20
2023-03-06T09:49:23.302Z,3.20
2023-03-06T09:51:57.651Z,3.20
2023-03-06T09:54:29.567Z,3.20
2023-03-06T09:56:58.532Z,3.20
2023-03-06T09:59:28.510Z,3.20
2023-03-06T10:02:06.115Z,3.30
2023-03-06T10:04:37.848Z,3.30
2023-03-06T10:07:09.450Z,3.40
2023-03-06T10:09:43.907Z,3.40
2023-03-06T10:12:28.392Z,3.40
2023-03-06T10:15:20.847Z,3.30
2023-03-06T10:17:49.421Z,2.90
2023-03-06T10:20:24.439Z,3.10
2023-03-06T10:23:05.107Z,3.10
2023-03-06T10:25:40.961Z,3.10
2023-03-06T10:28:18.653Z,3.10
2023-03-06T10:31:14.171Z,3.20
2023-03-06T10:34:02.231Z,3.30
2023-03-06T10:36:31.128Z,3.40
2023-03-06T10:39:00.580Z,3.30
2023-03-06T10:41:31.705Z,3.40
2023-03-06T10:44:06.524Z,3.30
2023-03-06T10:46:37.515Z,3.40
2023-03-06T10:49:09.423Z,3.50
2023-03-06T10:51:38.076Z,3.80
2023-03-06T10:54:18.349Z,4.70
2023-03-06T10:56:48.072Z,5.40
2023-03-06T10:59:23.041Z,5.40
2023-03-06T11:01:54.098Z,5.20
2023-03-06T11:04:25.678Z,4.90
2023-03-06T11:07:19.462Z,4.80
2023-03-06T11:10:00.177Z,4.60
2023-03-06T11:12:39.884Z,4.20
2023-03-06T11:15:13.980Z,4.20
2023-03-06T11:18:00.377Z,4.00
2023-03-06T11:20:51.110Z,3.70
2023-03-06T11:23:16.883Z,3.70
2023-03-06T11:25:57.591Z,3.80
2023-03-06T11:28:41.116Z,3.70
2023-03-06T11:31:14.341Z,3.80
2023-03-06T11:33:57.897Z,3.90
2023-03-06T11:36:47.548Z,3.80
2023-03-06T11:39:34.025Z,3.80
2023-03-06T11:42:17.710Z,3.80
2023-03-06T11:45:13.501Z,3.60
2023-03-06T11:47:53.895Z,3.70
2023-03-06T11:50:52.499Z,3.70
